PAEI METAR and TAF weather

Enter ICAO airport designator
Station Type Date Time Source
PAEI METAR 2020/10/20 17:03 UTC NOAA

PAEI 201703Z 00000KT 1SM R32/3500VP6000FT BR OVC003 M10/M12 A3038 RMK AO2A SLP302 $


Station Type Date Time Source
PAEI Decoded METAR 2020/10/20 17:03 UTC NOAA

Fairbanks, Eielson Air Force Base, AK, United States (PAEI) 64-39N 147-06W 167M
Oct 20, 2020 - 01:03 PM EDT / 2020.10.20 1703 UTC
Wind: Calm:0
Visibility: 1 mile(s):0
Sky conditions: overcast
Weather: mist
Temperature: 14 F (-10 C)
Dew Point: 10 F (-12 C)
Relative Humidity: 85%
Pressure (altimeter): 30.38 in. Hg (1028 hPa)
ob: PAEI 201703Z 00000KT 1SM R32/3500VP6000FT BR OVC003 M10/M12 A3038 RMK AO2A SLP302
cycle: 17

Station Type Date Time Source
PAEI TAF 2020/10/20 17:31 UTC NOAA

TAF
AMD PAEI 201726Z 2017/2120 VRB03KT 1600 BR OVC003 610039 QNH3031INS
TEMPO 2017/2019 0800 FZFG
BECMG 2018/2019 27004KT 4800 -SN BR SCT014 BKN025 OVC035 620259 QNH3033INS
TEMPO 2019/2022 3200 -SN BR SCT003 BKN014 620149
BECMG 2021/2022 VRB04KT 6000 -SHSN BKN011 OVC015 640119 QNH3042INS
BECMG 2105/2106 VRB04KT 8000 BR OVC004 640049 QNH3060INS
BECMG 2112/2113 VRB03KT 3200 BR SCT004 BKN011 QNH3067INS TXM04/2101Z TNM10/2017Z

Example: see airport list